N44OM KBOI-KMYL
Flight info
| Callsign | N44OM |
|---|---|
| Flight time | 0h 24m |
| Altitude | 14000 |
| Route | VALYY ODYSY |
| Aircraft | B350/L-SBGRW/S |
Departure
| Time | 2026-05-05 14:52 |
|---|---|
| Airport | Boise Air Terminal/Gowen Field (KBOI) |
Arrival
| Time | 2026-05-05 15:16 |
|---|---|
| Airport | McCall Municipal Airport (KMYL) |
| Time | Latitude | Longitude | Altitude | Speed | Heading |
|---|---|---|---|---|---|
| 2026-05-05 14:38 | 43.56526 | -116.21215 | 2878 ft | 0 kts | 269° |
| 2026-05-05 14:47 | 43.56526 | -116.21224 | 2878 ft | 4 kts | 265° |
| 2026-05-05 14:47 | 43.56482 | -116.21272 | 2878 ft | 12 kts | 204° |
| 2026-05-05 14:47 | 43.56402 | -116.21322 | 2878 ft | 10 kts | 185° |
| 2026-05-05 14:47 | 43.56384 | -116.21323 | 2878 ft | 0 kts | 183° |
| 2026-05-05 14:48 | 43.56383 | -116.21323 | 2878 ft | 0 kts | 183° |
| 2026-05-05 14:48 | 43.56366 | -116.21323 | 2878 ft | 8 kts | 179° |
| 2026-05-05 14:48 | 43.56322 | -116.21284 | 2878 ft | 9 kts | 118° |
| 2026-05-05 14:49 | 43.56282 | -116.21171 | 2878 ft | 16 kts | 115° |
| 2026-05-05 14:49 | 43.56226 | -116.21010 | 2878 ft | 21 kts | 116° |
| 2026-05-05 14:49 | 43.56167 | -116.20866 | 2878 ft | 7 kts | 156° |
| 2026-05-05 14:49 | 43.56110 | -116.20884 | 2878 ft | 12 kts | 205° |
| 2026-05-05 14:50 | 43.56015 | -116.20946 | 2877 ft | 14 kts | 206° |
| 2026-05-05 14:50 | 43.55978 | -116.20969 | 2877 ft | 0 kts | 204° |
| 2026-05-05 14:51 | 43.55933 | -116.20996 | 2877 ft | 12 kts | 208° |
| 2026-05-05 14:51 | 43.55907 | -116.21049 | 2877 ft | 3 kts | 277° |
| 2026-05-05 14:51 | 43.56024 | -116.21424 | 2878 ft | 92 kts | 295° |
| 2026-05-05 14:51 | 43.56405 | -116.22529 | 2946 ft | 155 kts | 295° |
| 2026-05-05 14:52 | 43.56932 | -116.23955 | 3060 ft | 180 kts | 299° |
| 2026-05-05 14:52 | 43.57670 | -116.25293 | 3600 ft | 173 kts | 322° |
| 2026-05-05 14:52 | 43.58814 | -116.25912 | 3939 ft | 177 kts | 358° |
| 2026-05-05 14:52 | 43.60033 | -116.25750 | 4256 ft | 183 kts | 18° |
| 2026-05-05 14:53 | 43.61218 | -116.24982 | 4349 ft | 195 kts | 37° |
| 2026-05-05 14:53 | 43.62239 | -116.23678 | 4379 ft | 207 kts | 46° |
| 2026-05-05 14:53 | 43.63313 | -116.22289 | 4407 ft | 216 kts | 45° |
| 2026-05-05 14:53 | 43.64438 | -116.20878 | 4507 ft | 217 kts | 45° |
| 2026-05-05 14:54 | 43.65480 | -116.19612 | 5179 ft | 193 kts | 44° |
| 2026-05-05 14:54 | 43.66527 | -116.18496 | 5715 ft | 185 kts | 22° |
| 2026-05-05 14:54 | 43.67763 | -116.18510 | 6153 ft | 184 kts | 343° |
| 2026-05-05 14:54 | 43.68981 | -116.19061 | 6560 ft | 184 kts | 340° |
| 2026-05-05 14:55 | 43.70202 | -116.19602 | 6960 ft | 185 kts | 348° |
| 2026-05-05 14:55 | 43.71483 | -116.19806 | 7362 ft | 185 kts | 358° |
| 2026-05-05 14:55 | 43.72764 | -116.19782 | 7788 ft | 184 kts | 3° |
| 2026-05-05 14:55 | 43.74039 | -116.19651 | 8188 ft | 184 kts | 8° |
| 2026-05-05 14:56 | 43.75293 | -116.19317 | 8599 ft | 183 kts | 12° |
| 2026-05-05 14:56 | 43.76542 | -116.18974 | 9009 ft | 183 kts | 10° |
| 2026-05-05 14:56 | 43.77776 | -116.18681 | 9415 ft | 183 kts | 10° |
| 2026-05-05 14:56 | 43.79029 | -116.18375 | 9805 ft | 183 kts | 10° |
| 2026-05-05 14:57 | 43.80273 | -116.18055 | 10219 ft | 181 kts | 11° |
| 2026-05-05 14:57 | 43.81514 | -116.17741 | 10580 ft | 182 kts | 11° |
| 2026-05-05 14:57 | 43.82763 | -116.17430 | 10963 ft | 182 kts | 10° |
| 2026-05-05 14:57 | 43.84012 | -116.17131 | 11328 ft | 182 kts | 10° |
| 2026-05-05 14:58 | 43.85264 | -116.16810 | 11645 ft | 186 kts | 11° |
| 2026-05-05 14:58 | 43.86119 | -116.16587 | 11751 ft | 192 kts | 11° |
| 2026-05-05 14:58 | 43.87930 | -116.16132 | 11851 ft | 206 kts | 11° |
| 2026-05-05 14:58 | 43.89369 | -116.15780 | 11887 ft | 214 kts | 11° |
| 2026-05-05 14:59 | 43.90854 | -116.15400 | 11902 ft | 220 kts | 12° |
| 2026-05-05 14:59 | 43.92374 | -116.15012 | 11908 ft | 224 kts | 11° |
| 2026-05-05 14:59 | 43.93921 | -116.14633 | 11909 ft | 227 kts | 11° |
| 2026-05-05 14:59 | 43.95483 | -116.14241 | 11921 ft | 229 kts | 11° |
| 2026-05-05 15:00 | 43.97054 | -116.13841 | 11912 ft | 230 kts | 11° |
| 2026-05-05 15:00 | 43.98097 | -116.13582 | 11917 ft | 230 kts | 11° |
| 2026-05-05 15:00 | 43.99674 | -116.13186 | 11924 ft | 230 kts | 11° |
| 2026-05-05 15:00 | 44.01764 | -116.12647 | 11925 ft | 231 kts | 11° |
| 2026-05-05 15:01 | 44.03351 | -116.12255 | 11921 ft | 232 kts | 11° |
| 2026-05-05 15:01 | 44.04943 | -116.11851 | 11918 ft | 233 kts | 11° |
| 2026-05-05 15:01 | 44.06540 | -116.11446 | 11924 ft | 233 kts | 11° |
| 2026-05-05 15:01 | 44.08138 | -116.11048 | 11917 ft | 233 kts | 11° |
| 2026-05-05 15:02 | 44.09735 | -116.10641 | 11907 ft | 234 kts | 11° |
| 2026-05-05 15:02 | 44.10819 | -116.10368 | 11561 ft | 246 kts | 12° |
| 2026-05-05 15:02 | 44.12561 | -116.09909 | 10968 ft | 262 kts | 12° |
| 2026-05-05 15:02 | 44.14359 | -116.09477 | 10631 ft | 261 kts | 12° |
| 2026-05-05 15:03 | 44.16717 | -116.08863 | 10245 ft | 260 kts | 12° |
| 2026-05-05 15:03 | 44.17915 | -116.08572 | 10116 ft | 256 kts | 12° |
| 2026-05-05 15:03 | 44.19623 | -116.08128 | 10024 ft | 250 kts | 13° |
| 2026-05-05 15:03 | 44.21317 | -116.07708 | 9973 ft | 245 kts | 9° |
| 2026-05-05 15:04 | 44.23002 | -116.07546 | 9944 ft | 241 kts | 6° |
| 2026-05-05 15:04 | 44.24657 | -116.07340 | 9942 ft | 237 kts | 8° |
| 2026-05-05 15:04 | 44.26294 | -116.07128 | 9939 ft | 236 kts | 7° |
| 2026-05-05 15:04 | 44.28451 | -116.06876 | 9922 ft | 233 kts | 7° |
| 2026-05-05 15:05 | 44.31145 | -116.06539 | 9919 ft | 230 kts | 7° |
| 2026-05-05 15:05 | 44.33252 | -116.06284 | 9936 ft | 229 kts | 8° |
| 2026-05-05 15:05 | 44.34302 | -116.06136 | 9928 ft | 229 kts | 8° |
| 2026-05-05 15:06 | 44.35868 | -116.05835 | 9936 ft | 226 kts | 17° |
| 2026-05-05 15:06 | 44.37369 | -116.05165 | 9946 ft | 226 kts | 21° |
| 2026-05-05 15:06 | 44.38825 | -116.04333 | 9932 ft | 227 kts | 25° |
| 2026-05-05 15:06 | 44.40262 | -116.03442 | 9925 ft | 225 kts | 25° |
| 2026-05-05 15:07 | 44.41701 | -116.02574 | 9943 ft | 225 kts | 24° |
| 2026-05-05 15:07 | 44.43164 | -116.01774 | 9940 ft | 226 kts | 20° |
| 2026-05-05 15:07 | 44.44698 | -116.01706 | 9945 ft | 233 kts | 344° |
| 2026-05-05 15:07 | 44.46154 | -116.02730 | 9940 ft | 235 kts | 335° |
| 2026-05-05 15:08 | 44.47305 | -116.04366 | 9946 ft | 246 kts | 298° |
| 2026-05-05 15:08 | 44.47493 | -116.06763 | 9932 ft | 256 kts | 261° |
| 2026-05-05 15:08 | 44.47160 | -116.09191 | 9950 ft | 252 kts | 277° |
| 2026-05-05 15:08 | 44.47769 | -116.11383 | 9947 ft | 240 kts | 316° |
| 2026-05-05 15:09 | 44.49171 | -116.12460 | 9954 ft | 230 kts | 356° |
| 2026-05-05 15:09 | 44.50687 | -116.12001 | 9949 ft | 226 kts | 29° |
| 2026-05-05 15:09 | 44.52047 | -116.10889 | 9940 ft | 227 kts | 32° |
| 2026-05-05 15:09 | 44.53372 | -116.09757 | 9928 ft | 226 kts | 31° |
| 2026-05-05 15:10 | 44.54722 | -116.08643 | 9942 ft | 224 kts | 30° |
| 2026-05-05 15:10 | 44.56154 | -116.07801 | 9955 ft | 224 kts | 16° |
| 2026-05-05 15:10 | 44.57689 | -116.07412 | 9964 ft | 224 kts | 8° |
| 2026-05-05 15:10 | 44.59243 | -116.07271 | 9978 ft | 222 kts | 4° |
| 2026-05-05 15:11 | 44.60775 | -116.07248 | 9984 ft | 219 kts | 2° |
| 2026-05-05 15:11 | 44.62288 | -116.07320 | 9988 ft | 217 kts | 356° |
| 2026-05-05 15:11 | 44.63780 | -116.07615 | 9999 ft | 216 kts | 355° |
| 2026-05-05 15:11 | 44.65248 | -116.07852 | 10011 ft | 215 kts | 357° |
| 2026-05-05 15:12 | 44.66731 | -116.08077 | 10012 ft | 214 kts | 356° |
| 2026-05-05 15:12 | 44.68214 | -116.08331 | 9913 ft | 218 kts | 356° |
| 2026-05-05 15:12 | 44.69799 | -116.08577 | 9224 ft | 239 kts | 356° |
| 2026-05-05 15:12 | 44.71501 | -116.08852 | 8535 ft | 251 kts | 355° |
| 2026-05-05 15:13 | 44.73791 | -116.09235 | 7960 ft | 248 kts | 356° |
| 2026-05-05 15:13 | 44.74936 | -116.09433 | 7826 ft | 241 kts | 354° |
| 2026-05-05 15:13 | 44.76493 | -116.09689 | 7675 ft | 211 kts | 355° |
| 2026-05-05 15:13 | 44.77855 | -116.09843 | 7500 ft | 192 kts | 1° |
| 2026-05-05 15:14 | 44.79212 | -116.09833 | 7009 ft | 194 kts | 1° |
| 2026-05-05 15:14 | 44.80524 | -116.09884 | 6773 ft | 181 kts | 359° |
| 2026-05-05 15:14 | 44.81729 | -116.09946 | 6674 ft | 167 kts | 0° |
| 2026-05-05 15:14 | 44.82900 | -116.09975 | 6255 ft | 168 kts | 1° |
| 2026-05-05 15:15 | 44.84038 | -116.10009 | 5878 ft | 157 kts | 358° |
| 2026-05-05 15:15 | 44.85039 | -116.10084 | 5738 ft | 132 kts | 358° |
| 2026-05-05 15:15 | 44.85941 | -116.10143 | 5587 ft | 127 kts | 356° |
| 2026-05-05 15:15 | 44.86798 | -116.10166 | 5426 ft | 124 kts | 1° |
| 2026-05-05 15:16 | 44.87667 | -116.10155 | 5156 ft | 128 kts | 1° |
| 2026-05-05 15:16 | 44.88537 | -116.10166 | 5030 ft | 114 kts | 0° |
| 2026-05-05 15:16 | 44.88869 | -116.10180 | 5029 ft | 26 kts | 359° |
| 2026-05-05 15:16 | 44.89081 | -116.10186 | 5026 ft | 26 kts | 358° |
| 2026-05-05 15:17 | 44.89191 | -116.10194 | 5026 ft | 7 kts | 339° |
| 2026-05-05 15:17 | 44.89210 | -116.10250 | 5026 ft | 14 kts | 273° |
| 2026-05-05 15:17 | 44.89250 | -116.10308 | 5026 ft | 7 kts | 344° |
| 2026-05-05 15:17 | 44.89281 | -116.10360 | 5026 ft | 7 kts | 321° |
| 2026-05-05 15:18 | 44.89324 | -116.10416 | 5027 ft | 9 kts | 322° |
| 2026-05-05 15:18 | 44.89343 | -116.10431 | 5027 ft | 0 kts | 347° |